createdAt,value
2019-02-12T00:28:37.971Z,5.52
2019-02-12T00:28:38.548Z,5.48
2019-02-12T00:28:39.144Z,5.49
2019-02-12T00:28:39.747Z,5.45
2019-02-12T00:28:40.348Z,5.48
2019-02-12T00:28:40.944Z,5.52
2019-02-12T00:28:41.544Z,5.46
2019-02-12T00:28:42.143Z,5.53
2019-02-12T00:29:35.624Z,5.49
2019-02-12T00:29:36.198Z,5.50
2019-02-12T00:29:36.797Z,5.56
2019-02-12T00:29:37.398Z,5.46
2019-02-12T00:29:37.996Z,5.63
2019-02-12T00:29:38.598Z,5.52
2019-02-12T00:29:39.197Z,5.49
2019-02-12T00:29:39.796Z,5.56
2019-02-12T00:30:45.977Z,5.56
2019-02-12T00:30:46.548Z,5.48
2019-02-12T00:30:47.148Z,5.55
2019-02-12T00:30:47.749Z,5.50
2019-02-12T00:30:48.347Z,5.57
2019-02-12T00:30:48.948Z,5.48
2019-02-12T00:30:49.551Z,5.56
2019-02-12T00:30:50.147Z,5.46
2019-02-12T00:31:44.651Z,5.55
2019-02-12T00:31:45.223Z,5.57
2019-02-12T00:31:45.826Z,5.52
2019-02-12T00:31:46.424Z,5.52
2019-02-12T00:31:47.023Z,5.53
2019-02-12T00:31:47.624Z,5.53
2019-02-12T00:31:48.223Z,5.48
2019-02-12T00:31:48.823Z,5.53
2019-02-12T00:32:43.328Z,5.46
2019-02-12T00:32:43.901Z,5.52
2019-02-12T00:32:44.500Z,5.53
2019-02-12T00:32:45.099Z,5.55
2019-02-12T00:32:45.699Z,5.46
2019-02-12T00:32:46.299Z,5.52
2019-02-12T00:32:46.899Z,5.43
2019-02-12T00:32:47.500Z,5.50
2019-02-12T00:33:40.980Z,5.57
2019-02-12T00:33:41.552Z,5.46
2019-02-12T00:33:42.152Z,5.52
2019-02-12T00:33:42.752Z,5.48
2019-02-12T00:33:43.353Z,5.52
2019-02-12T00:33:43.951Z,5.49
2019-02-12T00:33:44.551Z,5.52
2019-02-12T00:33:45.153Z,5.56
2019-02-12T00:34:38.632Z,5.49
2019-02-12T00:34:39.205Z,5.55
2019-02-12T00:34:39.806Z,5.56
2019-02-12T00:34:40.405Z,5.56
2019-02-12T00:34:41.004Z,5.48
2019-02-12T00:34:41.608Z,5.52
2019-02-12T00:34:42.205Z,5.57
2019-02-12T00:34:42.804Z,5.56
2019-02-12T00:35:36.286Z,5.48
2019-02-12T00:35:36.856Z,5.50
2019-02-12T00:35:37.457Z,5.48
2019-02-12T00:35:38.057Z,5.55
2019-02-12T00:35:38.657Z,5.49
2019-02-12T00:35:39.256Z,5.48
2019-02-12T00:35:39.857Z,5.59
2019-02-12T00:35:40.455Z,5.46
2019-02-12T00:36:34.961Z,5.50
2019-02-12T00:36:35.533Z,5.46
2019-02-12T00:36:36.135Z,5.49
2019-02-12T00:36:36.731Z,5.52
2019-02-12T00:36:37.330Z,5.55
2019-02-12T00:36:37.978Z,5.48
2019-02-12T00:36:38.531Z,5.56
2019-02-12T00:36:39.138Z,5.60
2019-02-12T00:37:33.645Z,5.63
2019-02-12T00:37:34.208Z,5.63
2019-02-12T00:37:34.809Z,5.64
2019-02-12T00:37:35.411Z,5.63
2019-02-12T00:37:36.017Z,5.56
2019-02-12T00:37:36.627Z,5.50
2019-02-12T00:37:37.210Z,5.60
2019-02-12T00:37:37.809Z,5.56
2019-02-12T00:38:32.310Z,5.56
2019-02-12T00:38:32.884Z,5.64
2019-02-12T00:38:33.486Z,5.55
2019-02-12T00:38:34.085Z,5.66
2019-02-12T00:38:34.684Z,5.59
2019-02-12T00:38:35.284Z,5.56
2019-02-12T00:38:35.883Z,5.63
2019-02-12T00:38:36.487Z,5.55
2019-02-12T00:39:32.527Z,5.53
2019-02-12T00:39:33.100Z,5.63
2019-02-12T00:39:33.695Z,5.68
2019-02-12T00:39:34.298Z,5.67
2019-02-12T00:39:34.897Z,5.66
2019-02-12T00:39:35.494Z,5.63
2019-02-12T00:40:30.484Z,5.60
2019-02-12T00:40:31.053Z,5.67
2019-02-12T00:40:31.654Z,5.63
2019-02-12T00:40:32.254Z,5.63
2019-02-12T00:40:32.854Z,5.63
2019-02-12T00:40:33.453Z,5.70
2019-02-12T00:40:34.051Z,5.60
2019-02-12T00:40:34.658Z,5.70
2019-02-12T00:41:29.161Z,5.64
2019-02-12T00:41:29.731Z,5.67
2019-02-12T00:41:30.331Z,5.66
2019-02-12T00:41:30.931Z,5.66
2019-02-12T00:41:31.531Z,5.66
2019-02-12T00:41:32.135Z,5.66
2019-02-12T00:41:32.733Z,5.70
2019-02-12T00:41:33.330Z,5.73
2019-02-12T00:42:27.834Z,5.66
2019-02-12T00:42:28.409Z,5.67
2019-02-12T00:42:29.007Z,5.73
2019-02-12T00:42:29.608Z,5.67
2019-02-12T00:42:30.207Z,5.77
2019-02-12T00:42:30.805Z,5.73
2019-02-12T00:42:31.406Z,5.73
2019-02-12T00:42:32.006Z,5.68
2019-02-12T00:43:26.511Z,5.73
2019-02-12T00:43:27.083Z,5.77
2019-02-12T00:43:27.685Z,5.73
2019-02-12T00:43:28.282Z,5.75
2019-02-12T00:43:28.884Z,5.74
2019-02-12T00:43:29.481Z,5.75
2019-02-12T00:43:30.081Z,5.77
2019-02-12T00:43:30.681Z,5.73
2019-02-12T00:44:24.162Z,5.75
2019-02-12T00:44:24.740Z,5.64
2019-02-12T00:44:25.349Z,5.68
2019-02-12T00:44:25.935Z,5.67
2019-02-12T00:44:26.537Z,5.78
2019-02-12T00:44:27.133Z,5.67
2019-02-12T00:44:27.735Z,5.73
2019-02-12T00:44:28.336Z,5.70
2019-02-12T00:45:22.837Z,5.71
2019-02-12T00:45:23.410Z,5.74
2019-02-12T00:45:24.009Z,5.78
2019-02-12T00:45:24.609Z,5.85
2019-02-12T00:45:25.209Z,5.73
2019-02-12T00:45:25.810Z,5.70
2019-02-12T00:45:26.411Z,5.77
2019-02-12T00:45:27.009Z,5.71
2019-02-12T00:46:21.512Z,5.78
2019-02-12T00:46:22.086Z,5.74
2019-02-12T00:46:22.686Z,5.81
2019-02-12T00:46:23.286Z,5.77
2019-02-12T00:46:23.889Z,5.73
2019-02-12T00:46:24.486Z,5.73
2019-02-12T00:46:25.085Z,5.74
2019-02-12T00:46:25.685Z,5.77
2019-02-12T00:47:19.165Z,5.71
2019-02-12T00:47:19.738Z,5.75
2019-02-12T00:47:20.338Z,5.70
2019-02-12T00:47:20.938Z,5.71
2019-02-12T00:47:21.539Z,5.71
2019-02-12T00:47:22.142Z,5.75
2019-02-12T00:47:22.738Z,5.74
2019-02-12T00:47:23.336Z,5.78
2019-02-12T00:48:17.839Z,5.85
2019-02-12T00:48:18.413Z,5.75
2019-02-12T00:48:19.014Z,5.67
2019-02-12T00:48:19.614Z,5.71
2019-02-12T00:48:20.213Z,5.75
2019-02-12T00:48:20.813Z,5.77
2019-02-12T00:48:21.414Z,5.82
2019-02-12T00:48:22.013Z,5.83
2019-02-12T00:49:15.494Z,5.82
2019-02-12T00:49:16.067Z,5.73
2019-02-12T00:49:16.666Z,5.81
2019-02-12T00:49:17.265Z,5.78
2019-02-12T00:49:17.866Z,5.75
2019-02-12T00:49:18.465Z,5.77
2019-02-12T00:49:19.065Z,5.73
2019-02-12T00:49:19.669Z,5.74
2019-02-12T00:50:14.167Z,5.78
2019-02-12T00:50:14.741Z,5.73
2019-02-12T00:50:15.342Z,5.75
2019-02-12T00:50:15.943Z,5.82
2019-02-12T00:50:16.540Z,5.78
2019-02-12T00:50:17.140Z,5.73
2019-02-12T00:50:17.744Z,5.85
2019-02-12T00:50:18.340Z,5.73
2019-02-12T00:51:17.577Z,5.82
2019-02-12T00:51:17.620Z,5.75
2019-02-12T00:51:17.691Z,5.75
2019-02-12T00:51:17.701Z,5.78
2019-02-12T00:51:17.756Z,5.78
2019-02-12T00:51:17.759Z,5.85
2019-02-12T00:51:17.786Z,5.77
2019-02-12T00:51:17.812Z,5.77
2019-02-12T00:52:10.497Z,5.74
2019-02-12T00:52:11.068Z,5.74
2019-02-12T00:52:11.669Z,5.74
2019-02-12T00:52:12.268Z,5.73
2019-02-12T00:52:12.867Z,5.75
2019-02-12T00:52:13.470Z,5.77
2019-02-12T00:52:14.068Z,5.73
2019-02-12T00:52:14.668Z,5.70
2019-02-12T00:53:09.174Z,5.82
2019-02-12T00:53:09.743Z,5.68
2019-02-12T00:53:10.347Z,5.74
2019-02-12T00:53:10.944Z,5.74
2019-02-12T00:53:11.544Z,5.74
2019-02-12T00:53:12.145Z,5.71
2019-02-12T00:53:12.742Z,5.81
2019-02-12T00:53:13.344Z,5.71
2019-02-12T00:54:07.847Z,5.83
2019-02-12T00:54:08.419Z,5.81
2019-02-12T00:54:09.020Z,5.78
2019-02-12T00:54:09.623Z,5.68
2019-02-12T00:54:10.219Z,5.71
2019-02-12T00:54:10.818Z,5.68
2019-02-12T00:54:11.419Z,5.74
2019-02-12T00:54:12.019Z,5.83
2019-02-12T00:55:06.524Z,5.78
2019-02-12T00:55:07.097Z,5.75
2019-02-12T00:55:07.698Z,5.86
2019-02-12T00:55:08.298Z,5.75
2019-02-12T00:55:08.895Z,5.85
2019-02-12T00:55:09.495Z,5.74
2019-02-12T00:55:10.098Z,5.77
2019-02-12T00:55:10.694Z,5.82
2019-02-12T00:56:05.199Z,5.77
2019-02-12T00:56:05.778Z,5.71
2019-02-12T00:56:06.374Z,5.71
2019-02-12T00:56:06.973Z,5.70
2019-02-12T00:56:07.575Z,5.77
2019-02-12T00:56:08.171Z,5.75
2019-02-12T00:56:08.770Z,5.75
2019-02-12T00:56:09.370Z,5.77
2019-02-12T00:57:02.855Z,5.75
2019-02-12T00:57:03.425Z,5.75
2019-02-12T00:57:04.027Z,5.70
2019-02-12T00:57:04.624Z,5.77
2019-02-12T00:57:05.225Z,5.68
2019-02-12T00:57:05.823Z,5.74
2019-02-12T00:57:06.425Z,5.68
2019-02-12T00:57:07.023Z,5.75
2019-02-12T00:58:00.503Z,5.64
2019-02-12T00:58:01.076Z,5.78
2019-02-12T00:58:01.675Z,5.75
2019-02-12T00:58:02.275Z,5.75
2019-02-12T00:58:02.875Z,5.66
2019-02-12T00:58:03.476Z,5.70
2019-02-12T00:58:04.074Z,5.68
2019-02-12T00:58:04.673Z,5.78
2019-02-12T00:58:59.178Z,5.56
2019-02-12T00:58:59.750Z,5.71
2019-02-12T00:59:00.351Z,5.77
2019-02-12T00:59:00.950Z,5.70
2019-02-12T00:59:01.549Z,5.73
2019-02-12T00:59:02.151Z,5.68
2019-02-12T00:59:02.750Z,5.74
2019-02-12T00:59:03.350Z,5.81
2019-02-12T00:59:56.832Z,5.63
2019-02-12T00:59:57.405Z,5.74
2019-02-12T00:59:58.003Z,5.70
2019-02-12T00:59:58.602Z,5.67
2019-02-12T00:59:59.202Z,5.67
2019-02-12T00:59:59.804Z,5.67
2019-02-12T01:00:00.403Z,5.74
2019-02-12T01:00:01.073Z,5.67
2019-02-12T01:00:55.556Z,5.77
2019-02-12T01:00:56.080Z,5.63
2019-02-12T01:00:56.677Z,5.70
2019-02-12T01:00:57.278Z,5.75
2019-02-12T01:00:57.882Z,5.73
2019-02-12T01:00:58.478Z,5.68
2019-02-12T01:00:59.077Z,5.83
2019-02-12T01:00:59.678Z,5.70
2019-02-12T01:01:53.159Z,5.68
2019-02-12T01:01:53.735Z,5.77
2019-02-12T01:01:54.329Z,5.68
2019-02-12T01:01:54.930Z,5.68
2019-02-12T01:01:55.532Z,5.75
2019-02-12T01:01:56.128Z,5.77
2019-02-12T01:01:56.731Z,5.71
2019-02-12T01:01:57.330Z,5.73
2019-02-12T01:02:51.832Z,5.68
2019-02-12T01:02:52.407Z,5.81
2019-02-12T01:02:53.006Z,5.77
2019-02-12T01:02:53.607Z,5.74
2019-02-12T01:02:54.205Z,5.81
2019-02-12T01:02:54.804Z,5.81
2019-02-12T01:02:55.413Z,5.74
2019-02-12T01:02:56.004Z,5.82
2019-02-12T01:03:49.485Z,5.78
2019-02-12T01:03:50.059Z,5.83
2019-02-12T01:03:50.658Z,5.81
2019-02-12T01:03:51.276Z,5.71
2019-02-12T01:03:51.863Z,5.85
2019-02-12T01:03:52.457Z,5.78
2019-02-12T01:03:53.056Z,5.82
2019-02-12T01:03:53.657Z,5.70
2019-02-12T01:04:48.160Z,5.71
2019-02-12T01:04:48.735Z,5.74
2019-02-12T01:04:49.334Z,5.81
2019-02-12T01:04:49.933Z,5.73
2019-02-12T01:04:50.533Z,5.83
2019-02-12T01:04:51.133Z,5.71
2019-02-12T01:04:51.732Z,5.73
2019-02-12T01:04:52.331Z,5.73
2019-02-12T01:05:45.812Z,5.74
2019-02-12T01:05:46.386Z,5.74
2019-02-12T01:05:46.984Z,5.73
2019-02-12T01:05:47.584Z,5.75
2019-02-12T01:05:48.185Z,5.78
2019-02-12T01:05:48.787Z,5.73
2019-02-12T01:05:49.385Z,5.77
2019-02-12T01:05:49.983Z,5.75
2019-02-12T01:06:44.490Z,5.78
2019-02-12T01:06:45.061Z,5.73
2019-02-12T01:06:45.661Z,5.78
2019-02-12T01:06:46.260Z,5.81
2019-02-12T01:06:46.859Z,5.78
2019-02-12T01:06:47.463Z,5.78
2019-02-12T01:06:48.064Z,5.78
2019-02-12T01:06:48.662Z,5.81
2019-02-12T01:07:43.165Z,5.75
2019-02-12T01:07:43.736Z,5.85
2019-02-12T01:07:44.336Z,5.85
2019-02-12T01:07:44.936Z,5.83
2019-02-12T01:07:45.537Z,5.88
2019-02-12T01:07:46.136Z,5.78
2019-02-12T01:07:46.736Z,5.89
2019-02-12T01:07:47.335Z,5.78
2019-02-12T01:08:40.816Z,5.82
2019-02-12T01:08:41.389Z,5.88
2019-02-12T01:08:41.988Z,5.92
2019-02-12T01:08:42.592Z,5.78
2019-02-12T01:08:43.190Z,5.83
2019-02-12T01:08:43.789Z,5.88
2019-02-12T01:08:44.387Z,5.85
2019-02-12T01:08:44.991Z,5.85
2019-02-12T01:09:38.466Z,5.89
2019-02-12T01:09:39.040Z,5.83
2019-02-12T01:09:39.640Z,5.88
2019-02-12T01:09:40.241Z,5.86
2019-02-12T01:09:40.840Z,5.89
2019-02-12T01:09:41.443Z,5.86
2019-02-12T01:09:42.040Z,5.88
2019-02-12T01:09:42.639Z,5.86
2019-02-12T01:10:37.143Z,5.83
2019-02-12T01:10:37.717Z,5.83
2019-02-12T01:10:38.316Z,5.88
2019-02-12T01:10:38.916Z,5.88
2019-02-12T01:10:39.514Z,5.91
2019-02-12T01:10:40.115Z,5.89
2019-02-12T01:10:40.715Z,5.85
2019-02-12T01:10:41.314Z,5.88
2019-02-12T01:11:35.819Z,5.86
2019-02-12T01:11:36.389Z,5.88
2019-02-12T01:11:36.991Z,5.89
2019-02-12T01:11:37.590Z,5.83
2019-02-12T01:11:38.198Z,5.89
2019-02-12T01:11:38.798Z,5.89
2019-02-12T01:11:39.389Z,5.89
2019-02-12T01:11:39.989Z,5.92
2019-02-12T01:12:33.471Z,5.86
2019-02-12T01:12:34.044Z,5.86
2019-02-12T01:12:34.645Z,5.91
2019-02-12T01:12:35.244Z,5.81
2019-02-12T01:12:35.843Z,5.81
2019-02-12T01:12:36.446Z,5.85
2019-02-12T01:12:37.043Z,5.83
2019-02-12T01:12:37.642Z,5.85
2019-02-12T01:13:32.145Z,5.86
2019-02-12T01:13:32.719Z,5.81
2019-02-12T01:13:33.320Z,5.88
2019-02-12T01:13:33.918Z,5.82
2019-02-12T01:13:34.519Z,5.81
2019-02-12T01:13:35.118Z,5.82
2019-02-12T01:13:35.717Z,5.81
2019-02-12T01:13:36.318Z,5.89
2019-02-12T01:14:29.797Z,5.86
2019-02-12T01:14:30.371Z,5.88
2019-02-12T01:14:30.971Z,5.91
2019-02-12T01:14:31.570Z,5.91
2019-02-12T01:14:32.170Z,5.88
2019-02-12T01:14:32.770Z,5.81
2019-02-12T01:14:33.369Z,5.85
2019-02-12T01:14:33.970Z,5.89
2019-02-12T01:15:27.450Z,5.83
2019-02-12T01:15:28.022Z,5.89
2019-02-12T01:15:28.622Z,5.91
2019-02-12T01:15:29.224Z,5.89
2019-02-12T01:15:29.821Z,5.86
2019-02-12T01:15:30.421Z,5.91
2019-02-12T01:15:31.022Z,5.89
2019-02-12T01:15:31.620Z,5.89
2019-02-12T01:16:25.102Z,5.86
2019-02-12T01:16:25.679Z,5.81
2019-02-12T01:16:26.274Z,5.86
2019-02-12T01:16:26.874Z,5.86
2019-02-12T01:16:27.474Z,5.88
2019-02-12T01:16:28.073Z,5.85
2019-02-12T01:16:28.674Z,5.88
2019-02-12T01:16:29.273Z,5.88
2019-02-12T01:17:22.753Z,5.86
2019-02-12T01:17:23.330Z,5.89
2019-02-12T01:17:23.925Z,5.82
2019-02-12T01:17:24.525Z,5.91
2019-02-12T01:17:25.126Z,5.89
2019-02-12T01:17:25.728Z,5.86
2019-02-12T01:17:26.326Z,5.83
2019-02-12T01:17:26.927Z,5.86
2019-02-12T01:18:20.410Z,5.86
2019-02-12T01:18:20.990Z,5.88
2019-02-12T01:18:21.577Z,5.89
2019-02-12T01:18:22.177Z,5.86
2019-02-12T01:18:22.777Z,5.83
2019-02-12T01:18:23.376Z,5.83
2019-02-12T01:18:23.981Z,5.91
2019-02-12T01:18:24.581Z,5.82
2019-02-12T01:19:19.080Z,5.86
2019-02-12T01:19:19.654Z,5.91
2019-02-12T01:19:20.255Z,5.85
2019-02-12T01:19:20.852Z,5.91
2019-02-12T01:19:21.451Z,5.85
2019-02-12T01:19:22.053Z,5.83
2019-02-12T01:19:22.651Z,5.89
2019-02-12T01:19:23.253Z,5.86
2019-02-12T01:20:17.756Z,5.86
2019-02-12T01:20:18.328Z,5.88
2019-02-12T01:20:18.927Z,5.86
2019-02-12T01:20:19.528Z,5.88
2019-02-12T01:20:20.128Z,5.91
2019-02-12T01:20:20.729Z,5.86
2019-02-12T01:20:21.327Z,5.78
2019-02-12T01:20:21.929Z,5.83
2019-02-12T01:21:16.432Z,5.91
2019-02-12T01:21:17.004Z,5.89
2019-02-12T01:21:25.853Z,5.89
2019-02-12T01:21:25.884Z,5.91
2019-02-12T01:21:26.001Z,5.86
2019-02-12T01:21:26.053Z,5.88
2019-02-12T01:21:26.078Z,5.81
2019-02-12T01:21:26.087Z,5.85
2019-02-12T01:22:15.110Z,5.74
2019-02-12T01:22:15.681Z,5.81
2019-02-12T01:22:16.280Z,5.86
2019-02-12T01:22:16.881Z,5.85
2019-02-12T01:22:17.481Z,5.86
2019-02-12T01:22:18.079Z,5.78
2019-02-12T01:22:18.680Z,5.78
2019-02-12T01:22:19.280Z,5.91
2019-02-12T01:23:12.761Z,5.78
2019-02-12T01:23:13.336Z,5.81
2019-02-12T01:23:13.934Z,5.75
2019-02-12T01:23:14.532Z,5.78
2019-02-12T01:23:15.132Z,5.82
2019-02-12T01:23:15.730Z,5.78
2019-02-12T01:23:16.332Z,5.77
2019-02-12T01:23:16.931Z,5.75
2019-02-12T01:24:10.412Z,5.74
2019-02-12T01:24:10.984Z,5.81
2019-02-12T01:24:11.583Z,5.77
2019-02-12T01:24:12.182Z,5.74
2019-02-12T01:24:12.783Z,5.73
2019-02-12T01:24:13.385Z,5.85
2019-02-12T01:24:13.983Z,5.85
2019-02-12T01:24:14.582Z,5.74
2019-02-12T01:25:09.088Z,5.83
2019-02-12T01:25:09.681Z,5.85
2019-02-12T01:25:10.258Z,5.74
2019-02-12T01:25:10.859Z,5.70
2019-02-12T01:25:11.460Z,5.81
2019-02-12T01:25:12.057Z,5.83
2019-02-12T01:25:12.657Z,5.83
2019-02-12T01:25:13.259Z,5.71
2019-02-12T01:26:07.762Z,5.77
2019-02-12T01:26:08.334Z,5.82
2019-02-12T01:26:08.935Z,5.71
2019-02-12T01:26:09.533Z,5.75
2019-02-12T01:26:10.134Z,5.86
2019-02-12T01:26:10.734Z,5.82
2019-02-12T01:26:11.333Z,5.78
2019-02-12T01:26:11.933Z,5.78
2019-02-12T01:27:05.414Z,5.70
2019-02-12T01:27:05.987Z,5.77
2019-02-12T01:27:06.587Z,5.74
2019-02-12T01:27:07.187Z,5.75
2019-02-12T01:27:07.787Z,5.73
2019-02-12T01:27:08.386Z,5.77
2019-02-12T01:27:08.985Z,5.75
2019-02-12T01:27:09.590Z,5.75
2019-02-12T01:28:03.066Z,5.66
2019-02-12T01:28:03.639Z,5.74
2019-02-12T01:28:04.238Z,5.75
2019-02-12T01:28:04.838Z,5.66
2019-02-12T01:28:05.441Z,5.71
2019-02-12T01:28:06.038Z,5.75
2019-02-12T01:28:06.638Z,5.78
2019-02-12T01:28:07.239Z,5.68
2019-02-12T01:29:01.741Z,5.66
2019-02-12T01:29:02.314Z,5.67
2019-02-12T01:29:02.915Z,5.66
2019-02-12T01:29:03.513Z,5.70
2019-02-12T01:29:04.114Z,5.75
2019-02-12T01:29:04.716Z,5.75
2019-02-12T01:29:05.315Z,5.77
2019-02-12T01:29:05.914Z,5.71
2019-02-12T01:29:59.394Z,5.60
2019-02-12T01:29:59.969Z,5.73
2019-02-12T01:30:00.565Z,5.78
2019-02-12T01:30:01.168Z,5.73
2019-02-12T01:30:01.771Z,5.74
2019-02-12T01:30:02.366Z,5.75
2019-02-12T01:30:02.999Z,5.68
2019-02-12T01:30:03.568Z,5.77
2019-02-12T01:30:57.045Z,5.67
2019-02-12T01:30:57.620Z,5.67
2019-02-12T01:30:58.219Z,5.77
2019-02-12T01:30:58.818Z,5.75
2019-02-12T01:30:59.429Z,5.73
2019-02-12T01:31:00.018Z,5.64
2019-02-12T01:31:00.617Z,5.77
2019-02-12T01:31:01.217Z,5.71
2019-02-12T01:31:55.721Z,5.68
2019-02-12T01:31:56.369Z,5.74
2019-02-12T01:31:56.893Z,5.74
2019-02-12T01:31:57.493Z,5.74
2019-02-12T01:31:58.093Z,5.71
2019-02-12T01:31:58.696Z,5.67
2019-02-12T01:31:59.294Z,5.71
2019-02-12T01:31:59.893Z,5.67
2019-02-12T01:32:54.394Z,5.60
2019-02-12T01:32:54.970Z,5.66
2019-02-12T01:32:55.569Z,5.71
2019-02-12T01:32:56.168Z,5.63
2019-02-12T01:32:56.768Z,5.68
2019-02-12T01:32:57.368Z,5.68
2019-02-12T01:32:57.968Z,5.63
2019-02-12T01:32:58.571Z,5.59
2019-02-12T01:33:53.070Z,5.53
2019-02-12T01:33:53.646Z,5.60
2019-02-12T01:33:54.243Z,5.66
2019-02-12T01:33:54.854Z,5.59
2019-02-12T01:33:55.441Z,5.66
2019-02-12T01:33:56.042Z,5.53
2019-02-12T01:33:56.642Z,5.57
2019-02-12T01:33:57.241Z,5.60
2019-02-12T01:34:51.748Z,5.52
2019-02-12T01:34:52.320Z,5.45
2019-02-12T01:34:52.920Z,5.52
2019-02-12T01:34:53.521Z,5.48
2019-02-12T01:34:54.120Z,5.45
2019-02-12T01:34:54.725Z,5.55
2019-02-12T01:34:55.320Z,5.48
2019-02-12T01:34:55.920Z,5.55
2019-02-12T01:35:50.424Z,5.48
2019-02-12T01:35:51.000Z,5.48
2019-02-12T01:35:51.596Z,5.50
2019-02-12T01:35:52.196Z,5.52
2019-02-12T01:35:52.794Z,5.43
2019-02-12T01:35:53.396Z,5.48
2019-02-12T01:35:53.994Z,5.46
2019-02-12T01:35:54.595Z,5.49
2019-02-12T01:36:49.099Z,5.49
2019-02-12T01:36:49.671Z,5.41
2019-02-12T01:36:50.271Z,5.38
2019-02-12T01:36:50.871Z,5.48
2019-02-12T01:36:51.470Z,5.45
2019-02-12T01:36:52.071Z,5.38
2019-02-12T01:36:52.670Z,5.45
2019-02-12T01:36:53.270Z,5.46
2019-02-12T01:37:47.775Z,5.48
2019-02-12T01:37:48.347Z,5.41
2019-02-12T01:37:48.949Z,5.37
2019-02-12T01:37:49.550Z,5.49
2019-02-12T01:37:50.145Z,5.50
2019-02-12T01:37:50.745Z,5.49
2019-02-12T01:37:51.346Z,5.45
2019-02-12T01:37:51.948Z,5.41
2019-02-12T01:38:45.427Z,5.49
2019-02-12T01:38:46.000Z,5.45
2019-02-12T01:38:46.600Z,5.45
2019-02-12T01:38:47.199Z,5.52
2019-02-12T01:38:47.800Z,5.45
2019-02-12T01:38:48.399Z,5.45
2019-02-12T01:38:49.000Z,5.45
2019-02-12T01:38:49.600Z,5.41
2019-02-12T01:39:43.078Z,5.48
2019-02-12T01:39:43.651Z,5.40
2019-02-12T01:39:44.251Z,5.41
2019-02-12T01:39:44.852Z,5.50
2019-02-12T01:39:45.452Z,5.45
2019-02-12T01:39:46.051Z,5.41
2019-02-12T01:39:46.652Z,5.45
2019-02-12T01:39:47.250Z,5.38
2019-02-12T01:40:41.754Z,5.43
2019-02-12T01:40:42.326Z,5.49
2019-02-12T01:40:42.927Z,5.52
2019-02-12T01:40:43.525Z,5.45
2019-02-12T01:40:45.812Z,5.48
2019-02-12T01:40:45.875Z,5.49
2019-02-12T01:40:45.890Z,5.46
2019-02-12T01:40:45.943Z,5.41
2019-02-12T01:41:39.406Z,5.48
2019-02-12T01:41:39.999Z,5.53
2019-02-12T01:41:40.582Z,5.50
2019-02-12T01:41:41.178Z,5.48
2019-02-12T01:41:41.779Z,5.50
2019-02-12T01:41:42.385Z,5.48
2019-02-12T01:41:42.979Z,5.48
2019-02-12T01:41:43.579Z,5.50
2019-02-12T01:42:37.058Z,5.49
2019-02-12T01:42:37.631Z,5.49
2019-02-12T01:42:38.229Z,5.55
2019-02-12T01:42:38.832Z,5.52
2019-02-12T01:42:39.430Z,5.46
2019-02-12T01:42:40.030Z,5.52
2019-02-12T01:42:40.630Z,5.52
2019-02-12T01:42:41.230Z,5.41
2019-02-12T01:43:35.732Z,5.49
2019-02-12T01:43:36.304Z,5.49
2019-02-12T01:43:36.905Z,5.52
2019-02-12T01:43:37.504Z,5.49
2019-02-12T01:43:38.104Z,5.55
2019-02-12T01:43:38.703Z,5.56
2019-02-12T01:43:39.305Z,5.56
2019-02-12T01:43:39.904Z,5.55
2019-02-12T01:44:33.385Z,5.53
2019-02-12T01:44:33.959Z,5.55
2019-02-12T01:44:34.557Z,5.63
2019-02-12T01:44:35.160Z,5.59
2019-02-12T01:44:35.758Z,5.60
2019-02-12T01:44:36.357Z,5.57
2019-02-12T01:44:36.958Z,5.60
2019-02-12T01:44:37.560Z,5.56
2019-02-12T01:45:31.037Z,5.57
2019-02-12T01:45:31.613Z,5.59
2019-02-12T01:45:32.209Z,5.55
2019-02-12T01:45:32.810Z,5.60
2019-02-12T01:45:33.410Z,5.63
2019-02-12T01:45:34.011Z,5.57
2019-02-12T01:45:34.609Z,5.64
2019-02-12T01:45:35.209Z,5.60
2019-02-12T01:46:28.688Z,5.63
2019-02-12T01:46:29.261Z,5.63
2019-02-12T01:46:29.861Z,5.64
2019-02-12T01:46:30.460Z,5.57
2019-02-12T01:46:31.060Z,5.60
2019-02-12T01:46:31.663Z,5.64
2019-02-12T01:46:32.262Z,5.70
2019-02-12T01:46:32.861Z,5.59
2019-02-12T01:47:26.339Z,5.60
2019-02-12T01:47:26.914Z,5.63
2019-02-12T01:47:27.513Z,5.64
2019-02-12T01:47:28.113Z,5.60
2019-02-12T01:47:28.717Z,5.59
2019-02-12T01:47:29.316Z,5.59
2019-02-12T01:47:29.912Z,5.68
2019-02-12T01:47:30.511Z,5.68
2019-02-12T01:48:25.015Z,5.57
2019-02-12T01:48:25.587Z,5.67
2019-02-12T01:48:26.188Z,5.59
2019-02-12T01:48:26.788Z,5.64
2019-02-12T01:48:27.389Z,5.63
2019-02-12T01:48:28.002Z,5.71
2019-02-12T01:48:28.587Z,5.71
2019-02-12T01:48:29.189Z,5.64
2019-02-12T01:49:23.691Z,5.64
2019-02-12T01:49:24.263Z,5.60
2019-02-12T01:49:24.866Z,5.67
2019-02-12T01:49:25.464Z,5.64
2019-02-12T01:49:26.064Z,5.68
2019-02-12T01:49:26.664Z,5.71
2019-02-12T01:49:27.270Z,5.66
2019-02-12T01:49:27.863Z,5.68
2019-02-12T01:50:21.343Z,5.63
2019-02-12T01:50:21.917Z,5.67
2019-02-12T01:50:22.516Z,5.64
2019-02-12T01:50:23.115Z,5.70
2019-02-12T01:50:23.715Z,5.66
2019-02-12T01:50:24.328Z,5.66
2019-02-12T01:50:24.914Z,5.74
2019-02-12T01:50:25.516Z,5.70
2019-02-12T01:51:18.994Z,5.66
2019-02-12T01:51:19.570Z,5.70
2019-02-12T01:51:20.167Z,5.64
2019-02-12T01:51:20.767Z,5.66
2019-02-12T01:51:21.367Z,5.67
2019-02-12T01:51:21.967Z,5.64
2019-02-12T01:51:22.567Z,5.67
2019-02-12T01:51:23.167Z,5.66
2019-02-12T01:52:16.650Z,5.73
2019-02-12T01:52:17.220Z,5.70
2019-02-12T01:52:17.820Z,5.66
2019-02-12T01:52:18.418Z,5.73
2019-02-12T01:52:19.019Z,5.68
2019-02-12T01:52:19.618Z,5.66
2019-02-12T01:52:20.218Z,5.68
2019-02-12T01:52:20.817Z,5.71
2019-02-12T01:53:15.321Z,5.64
2019-02-12T01:53:15.894Z,5.67
2019-02-12T01:53:16.494Z,5.68
2019-02-12T01:53:17.096Z,5.68
2019-02-12T01:53:17.695Z,5.73
2019-02-12T01:53:18.294Z,5.66
2019-02-12T01:53:18.893Z,5.70
2019-02-12T01:53:19.494Z,5.67
2019-02-12T01:54:13.996Z,5.70
2019-02-12T01:54:14.570Z,5.73
2019-02-12T01:54:15.169Z,5.71
2019-02-12T01:54:15.770Z,5.77
2019-02-12T01:54:16.369Z,5.68
2019-02-12T01:54:16.972Z,5.63
2019-02-12T01:54:17.570Z,5.74
2019-02-12T01:54:18.171Z,5.63
2019-02-12T01:55:12.678Z,5.73
2019-02-12T01:55:13.247Z,5.74
2019-02-12T01:55:13.846Z,5.75
2019-02-12T01:55:14.445Z,5.70
2019-02-12T01:55:15.045Z,5.77
2019-02-12T01:55:15.645Z,5.73
2019-02-12T01:55:16.245Z,5.64
2019-02-12T01:55:16.845Z,5.78
2019-02-12T01:56:11.350Z,5.71
2019-02-12T01:56:11.923Z,5.70
2019-02-12T01:56:12.522Z,5.70
2019-02-12T01:56:13.123Z,5.74
2019-02-12T01:56:13.721Z,5.75
2019-02-12T01:56:14.321Z,5.68
2019-02-12T01:56:14.921Z,5.77
2019-02-12T01:56:15.529Z,5.68
2019-02-12T01:57:10.025Z,5.75
2019-02-12T01:57:10.599Z,5.71
2019-02-12T01:57:11.197Z,5.70
2019-02-12T01:57:11.799Z,5.73
2019-02-12T01:57:12.397Z,5.70
2019-02-12T01:57:12.997Z,5.75
2019-02-12T01:57:13.597Z,5.77
2019-02-12T01:57:14.196Z,5.75
2019-02-12T01:58:08.701Z,5.71
2019-02-12T01:58:09.272Z,5.71
2019-02-12T01:58:09.873Z,5.75
2019-02-12T01:58:10.476Z,5.82
2019-02-12T01:58:11.073Z,5.73
2019-02-12T01:58:11.672Z,5.74
2019-02-12T01:58:12.272Z,5.71
2019-02-12T01:58:12.872Z,5.66
2019-02-12T01:59:06.353Z,5.73
2019-02-12T01:59:06.931Z,5.71
2019-02-12T01:59:07.528Z,5.77
2019-02-12T01:59:08.125Z,5.73
2019-02-12T01:59:08.724Z,5.75
2019-02-12T01:59:09.324Z,5.71
2019-02-12T01:59:09.925Z,5.70
2019-02-12T01:59:10.525Z,5.74
2019-02-12T02:00:05.028Z,5.71
2019-02-12T02:00:05.600Z,5.70
2019-02-12T02:00:06.201Z,5.70
2019-02-12T02:00:06.799Z,5.59
2019-02-12T02:00:07.402Z,5.75
2019-02-12T02:00:08.000Z,5.82
2019-02-12T02:00:08.601Z,5.70
2019-02-12T02:00:09.200Z,5.77
2019-02-12T02:01:03.704Z,5.67
2019-02-12T02:01:04.276Z,5.67
2019-02-12T02:01:04.877Z,5.77
2019-02-12T02:01:05.475Z,5.73
2019-02-12T02:01:06.076Z,5.81
2019-02-12T02:01:06.675Z,5.75
2019-02-12T02:01:07.275Z,5.74
2019-02-12T02:01:07.874Z,5.64
2019-02-12T02:02:02.379Z,5.63
2019-02-12T02:02:02.952Z,5.70
2019-02-12T02:02:03.551Z,5.82
2019-02-12T02:02:04.156Z,5.75
2019-02-12T02:02:04.751Z,5.60
2019-02-12T02:02:05.350Z,5.77
2019-02-12T02:02:05.949Z,5.66
2019-02-12T02:02:06.549Z,5.78
2019-02-12T02:03:00.036Z,5.71
2019-02-12T02:03:00.603Z,5.71
2019-02-12T02:03:01.210Z,5.71
2019-02-12T02:03:01.805Z,5.78
2019-02-12T02:03:02.403Z,5.73
2019-02-12T02:03:03.004Z,5.75
2019-02-12T02:03:03.602Z,5.66
2019-02-12T02:03:04.204Z,5.73
2019-02-12T02:03:58.705Z,5.66
2019-02-12T02:03:59.280Z,5.70
2019-02-12T02:03:59.881Z,5.67
2019-02-12T02:04:00.485Z,5.67
2019-02-12T02:04:01.079Z,5.67
2019-02-12T02:04:01.679Z,5.73
2019-02-12T02:04:02.279Z,5.66
2019-02-12T02:04:02.878Z,5.71
2019-02-12T02:04:56.366Z,5.66
2019-02-12T02:04:56.933Z,5.70
2019-02-12T02:04:57.531Z,5.64
2019-02-12T02:04:58.131Z,5.68
2019-02-12T02:04:58.737Z,5.64
2019-02-12T02:04:59.333Z,5.64
2019-02-12T02:04:59.930Z,5.70
2019-02-12T02:05:00.532Z,5.64
2019-02-12T02:05:55.034Z,5.64